createdAt,value
2019-03-18T00:00:29.630Z,6.50
2019-03-18T00:02:58.805Z,6.50
2019-03-18T00:05:28.003Z,6.50
2019-03-18T00:07:57.182Z,6.50
2019-03-18T00:10:26.396Z,6.50
2019-03-18T00:12:56.067Z,6.50
2019-03-18T00:15:25.231Z,6.50
2019-03-18T00:17:54.415Z,6.40
2019-03-18T00:20:23.497Z,6.40
2019-03-18T00:22:52.569Z,6.40
2019-03-18T00:25:21.753Z,6.40
2019-03-18T00:27:50.882Z,6.30
2019-03-18T00:30:20.104Z,6.30
2019-03-18T00:32:49.391Z,6.40
2019-03-18T00:35:18.505Z,6.30
2019-03-18T00:37:47.616Z,6.30
2019-03-18T00:40:19.934Z,6.40
2019-03-18T00:42:48.950Z,6.40
2019-03-18T00:45:18.099Z,6.40
2019-03-18T00:47:47.094Z,6.30
2019-03-18T00:50:16.268Z,6.30
2019-03-18T00:52:45.433Z,6.30
2019-03-18T00:55:14.448Z,6.30
2019-03-18T00:57:43.700Z,6.30
2019-03-18T01:00:12.889Z,6.20
2019-03-18T01:02:41.896Z,6.20
2019-03-18T01:05:11.018Z,6.20
2019-03-18T01:07:40.171Z,6.10
2019-03-18T01:10:10.532Z,6.10
2019-03-18T01:12:39.934Z,6.10
2019-03-18T01:15:09.282Z,6.10
2019-03-18T01:17:38.439Z,6.20
2019-03-18T01:20:07.894Z,6.20
2019-03-18T01:22:37.043Z,6.30
2019-03-18T01:25:06.576Z,6.20
2019-03-18T01:27:35.579Z,6.30
2019-03-18T01:30:04.860Z,6.30
2019-03-18T01:32:33.974Z,6.20
2019-03-18T01:35:03.560Z,6.30
2019-03-18T01:37:32.770Z,6.30
2019-03-18T01:40:02.106Z,6.20
2019-03-18T01:42:31.342Z,6.20
2019-03-18T01:45:00.403Z,6.20
2019-03-18T01:47:29.439Z,6.20
2019-03-18T01:50:04.807Z,6.20
2019-03-18T01:52:33.970Z,6.20
2019-03-18T01:55:02.986Z,6.20
2019-03-18T01:57:31.955Z,6.20
2019-03-18T02:00:01.323Z,6.30
2019-03-18T02:02:30.378Z,6.20
2019-03-18T02:04:59.459Z,6.30
2019-03-18T02:07:28.503Z,6.30
2019-03-18T02:09:57.910Z,6.30
2019-03-18T02:12:26.977Z,6.30
2019-03-18T02:14:56.068Z,6.30
2019-03-18T02:17:25.299Z,6.40
2019-03-18T02:19:54.505Z,6.40
2019-03-18T02:22:23.734Z,6.40
2019-03-18T02:24:52.851Z,6.30
2019-03-18T02:27:22.056Z,6.30
2019-03-18T02:29:51.039Z,6.30
2019-03-18T02:32:20.124Z,6.30
2019-03-18T02:34:49.224Z,6.30
2019-03-18T02:37:18.348Z,6.30
2019-03-18T02:39:47.665Z,6.20
2019-03-18T02:42:16.851Z,6.20
2019-03-18T02:44:46.235Z,6.20
2019-03-18T02:47:15.318Z,6.30
2019-03-18T02:49:44.327Z,6.30
2019-03-18T02:52:13.547Z,6.20
2019-03-18T02:54:42.706Z,6.30
2019-03-18T02:57:11.804Z,6.30
2019-03-18T02:59:40.812Z,6.30
2019-03-18T03:02:10.028Z,6.30
2019-03-18T03:04:39.159Z,6.30
2019-03-18T03:07:08.301Z,6.30
2019-03-18T03:09:37.301Z,6.30
2019-03-18T03:12:06.284Z,6.30
2019-03-18T03:14:35.397Z,6.30
2019-03-18T03:17:04.782Z,6.30
2019-03-18T03:19:33.769Z,6.30
2019-03-18T03:22:02.798Z,6.40
2019-03-18T03:24:32.112Z,6.40
2019-03-18T03:27:01.227Z,6.30
2019-03-18T03:29:30.265Z,6.30
2019-03-18T03:31:59.878Z,6.30
2019-03-18T03:34:29.235Z,6.30
2019-03-18T03:36:58.312Z,6.40
2019-03-18T03:39:27.392Z,6.30
2019-03-18T03:41:56.612Z,6.30
2019-03-18T03:44:25.694Z,6.30
2019-03-18T03:46:54.731Z,6.30
2019-03-18T03:49:23.707Z,6.30
2019-03-18T03:51:52.934Z,6.30
2019-03-18T03:54:22.173Z,6.30
2019-03-18T03:56:51.419Z,6.30
2019-03-18T03:59:20.439Z,6.30
2019-03-18T04:01:49.830Z,6.30
2019-03-18T04:04:19.052Z,6.30
2019-03-18T04:06:48.389Z,6.30
2019-03-18T04:09:17.545Z,6.30
2019-03-18T04:11:46.614Z,6.30
2019-03-18T04:14:15.615Z,6.20
2019-03-18T04:16:55.903Z,6.20
2019-03-18T04:19:15.576Z,6.20
2019-03-18T04:21:44.674Z,6.20
2019-03-18T04:24:13.894Z,6.20
2019-03-18T04:26:43.078Z,6.20
2019-03-18T04:29:12.091Z,6.20
2019-03-18T04:31:41.254Z,6.20
2019-03-18T04:34:10.350Z,6.20
2019-03-18T04:36:39.440Z,6.20
2019-03-18T04:39:08.809Z,6.20
2019-03-18T04:41:37.875Z,6.20
2019-03-18T04:44:06.873Z,6.20
2019-03-18T04:46:36.231Z,6.20
2019-03-18T04:49:05.267Z,6.10
2019-03-18T04:51:34.318Z,6.20
2019-03-18T04:54:03.409Z,6.10
2019-03-18T04:56:32.422Z,6.10
2019-03-18T04:59:01.770Z,6.20
2019-03-18T05:01:30.822Z,6.20
2019-03-18T05:03:59.855Z,6.20
2019-03-18T05:06:28.934Z,6.20
2019-03-18T05:08:57.883Z,6.20
2019-03-18T05:11:27.315Z,6.20
2019-03-18T05:13:57.228Z,6.20
2019-03-18T05:16:26.418Z,6.10
2019-03-18T05:18:55.507Z,6.00
2019-03-18T05:21:24.539Z,6.00
2019-03-18T05:23:53.617Z,6.00
2019-03-18T05:26:22.611Z,6.00
2019-03-18T05:28:51.696Z,6.00
2019-03-18T05:31:20.796Z,6.00
2019-03-18T05:33:50.073Z,6.10
2019-03-18T05:36:19.335Z,6.10
2019-03-18T05:38:48.551Z,6.10
2019-03-18T05:41:17.631Z,6.10
2019-03-18T05:43:46.733Z,6.00
2019-03-18T05:46:15.736Z,5.90
2019-03-18T05:48:44.722Z,5.90
2019-03-18T05:51:13.838Z,5.90
2019-03-18T05:53:43.479Z,5.90
2019-03-18T05:56:12.888Z,5.90
2019-03-18T05:58:42.051Z,5.90
2019-03-18T06:01:11.157Z,5.90
2019-03-18T06:03:40.137Z,5.90
2019-03-18T06:06:09.528Z,5.90
2019-03-18T06:08:38.564Z,5.90
2019-03-18T06:11:07.680Z,5.80
2019-03-18T06:13:36.824Z,5.80
2019-03-18T06:16:05.859Z,5.90
2019-03-18T06:18:35.099Z,5.90
2019-03-18T06:21:04.479Z,5.90
2019-03-18T06:23:33.527Z,5.90
2019-03-18T06:26:02.596Z,5.90
2019-03-18T06:28:31.620Z,5.90
2019-03-18T06:31:00.727Z,5.90
2019-03-18T06:33:30.077Z,5.90
2019-03-18T06:35:59.327Z,5.90
2019-03-18T06:38:28.322Z,5.90
2019-03-18T06:40:57.334Z,6.00
2019-03-18T06:43:26.343Z,6.00
2019-03-18T06:45:55.326Z,5.90
2019-03-18T06:48:24.434Z,6.00
2019-03-18T06:50:53.362Z,6.10
2019-03-18T06:53:22.479Z,6.40
2019-03-18T06:55:51.576Z,6.60
2019-03-18T06:58:20.500Z,6.70
2019-03-18T07:00:49.674Z,6.80
2019-03-18T07:03:19.363Z,6.80
2019-03-18T07:05:48.473Z,6.80
2019-03-18T07:08:17.579Z,6.80
2019-03-18T07:10:46.674Z,6.80
2019-03-18T07:13:16.180Z,6.70
2019-03-18T07:15:45.482Z,6.80
2019-03-18T07:18:18.480Z,6.80
2019-03-18T07:20:45.430Z,6.80
2019-03-18T07:23:14.474Z,6.80
2019-03-18T07:25:43.591Z,6.70
2019-03-18T07:28:13.125Z,6.70
2019-03-18T07:30:42.128Z,6.80
2019-03-18T07:33:11.300Z,6.90
2019-03-18T07:35:40.260Z,6.80
2019-03-18T07:38:09.331Z,6.70
2019-03-18T07:40:38.455Z,6.70
2019-03-18T07:43:07.500Z,6.60
2019-03-18T07:45:36.587Z,6.60
2019-03-18T07:48:06.561Z,6.60
2019-03-18T07:50:35.863Z,6.60
2019-03-18T07:53:05.097Z,6.60
2019-03-18T07:55:34.279Z,6.60
2019-03-18T07:58:09.195Z,6.60
2019-03-18T08:00:38.427Z,6.60
2019-03-18T08:03:07.914Z,6.60
2019-03-18T08:05:37.066Z,6.60
2019-03-18T08:08:06.243Z,6.60
2019-03-18T08:10:35.325Z,6.60
2019-03-18T08:13:04.563Z,6.50
2019-03-18T08:15:33.518Z,6.50
2019-03-18T08:18:02.648Z,6.50
2019-03-18T08:20:31.743Z,6.40
2019-03-18T08:23:00.916Z,6.40
2019-03-18T08:25:30.120Z,6.40
2019-03-18T08:27:59.257Z,6.50
2019-03-18T08:30:28.804Z,6.50
2019-03-18T08:32:57.968Z,6.60
2019-03-18T08:35:27.122Z,6.60
2019-03-18T08:37:56.380Z,6.60
2019-03-18T08:40:25.568Z,6.70
2019-03-18T08:42:54.713Z,6.70
2019-03-18T08:45:23.728Z,6.70
2019-03-18T08:47:52.679Z,6.70
2019-03-18T08:50:22.087Z,6.80
2019-03-18T08:52:51.177Z,6.90
2019-03-18T08:55:20.098Z,6.90
2019-03-18T08:57:49.439Z,7.00
2019-03-18T09:00:18.680Z,7.00
2019-03-18T09:02:47.810Z,7.10
2019-03-18T09:05:17.115Z,7.20
2019-03-18T09:07:46.336Z,7.30
2019-03-18T09:10:15.540Z,7.40
2019-03-18T09:12:44.789Z,7.40
2019-03-18T09:15:13.984Z,7.40
2019-03-18T09:17:43.481Z,7.40
2019-03-18T09:20:12.852Z,7.50
2019-03-18T09:22:42.016Z,7.60
2019-03-18T09:25:11.551Z,7.70
2019-03-18T09:27:40.559Z,7.70
2019-03-18T09:30:11.132Z,7.80
2019-03-18T09:32:40.184Z,7.90
2019-03-18T09:35:09.416Z,8.00
2019-03-18T09:37:38.501Z,8.10
2019-03-18T09:40:07.881Z,8.10
2019-03-18T09:42:39.719Z,8.20
2019-03-18T09:45:09.393Z,8.20
2019-03-18T09:47:38.514Z,8.30
2019-03-18T09:50:07.635Z,8.30
2019-03-18T09:52:36.706Z,8.30
2019-03-18T09:55:05.907Z,8.40
2019-03-18T09:57:34.995Z,8.40
2019-03-18T10:00:04.264Z,8.40
2019-03-18T10:02:33.239Z,8.40
2019-03-18T10:05:02.200Z,8.40
2019-03-18T10:07:31.223Z,8.40
2019-03-18T10:10:00.361Z,8.40
2019-03-18T10:12:29.483Z,8.40
2019-03-18T10:14:58.535Z,8.40
2019-03-18T10:17:27.826Z,8.50
2019-03-18T10:19:56.973Z,8.50
2019-03-18T10:22:25.923Z,8.60
2019-03-18T10:24:54.984Z,8.70
2019-03-18T10:27:23.958Z,9.00
2019-03-18T10:29:52.993Z,9.10
2019-03-18T10:32:21.902Z,9.10
2019-03-18T10:34:50.856Z,9.10
2019-03-18T10:37:19.882Z,9.00
2019-03-18T10:39:48.916Z,8.80
2019-03-18T10:42:17.879Z,8.70
2019-03-18T10:44:47.109Z,8.50
2019-03-18T10:47:16.414Z,8.30
2019-03-18T10:49:46.697Z,8.40
2019-03-18T10:52:15.949Z,8.40
2019-03-18T10:54:44.972Z,8.60
2019-03-18T10:57:13.980Z,8.70
2019-03-18T10:59:43.040Z,8.90
2019-03-18T11:02:12.342Z,9.10
2019-03-18T11:04:41.339Z,9.20
2019-03-18T11:07:10.431Z,9.40
2019-03-18T11:09:39.805Z,9.40
2019-03-18T11:12:08.969Z,9.50
2019-03-18T11:14:37.882Z,9.50
2019-03-18T11:17:07.018Z,9.40
2019-03-18T11:19:36.263Z,9.30
2019-03-18T11:22:05.442Z,9.20
2019-03-18T11:24:34.607Z,9.20
2019-03-18T11:27:03.596Z,9.10
2019-03-18T11:29:32.656Z,9.00
2019-03-18T11:32:01.658Z,9.00
2019-03-18T11:34:30.967Z,9.00
2019-03-18T11:37:00.027Z,9.20
2019-03-18T11:39:29.261Z,9.40
2019-03-18T11:41:58.264Z,9.60
2019-03-18T11:44:27.280Z,9.80
2019-03-18T11:46:56.567Z,10.00
2019-03-18T11:49:25.576Z,10.20
2019-03-18T11:51:54.662Z,10.30
2019-03-18T11:54:23.858Z,10.30
2019-03-18T11:56:52.882Z,10.20
2019-03-18T11:59:21.847Z,10.20
2019-03-18T12:01:51.061Z,10.10
2019-03-18T12:04:20.128Z,10.00
2019-03-18T12:06:50.030Z,9.90
2019-03-18T12:09:18.995Z,10.00
2019-03-18T12:11:47.934Z,10.10
2019-03-18T12:14:17.086Z,10.30
2019-03-18T12:16:46.177Z,10.60
2019-03-18T12:19:15.455Z,10.60
2019-03-18T12:21:44.552Z,10.70
2019-03-18T12:24:13.915Z,10.70
2019-03-18T12:26:43.020Z,10.70
2019-03-18T12:29:12.172Z,10.60
2019-03-18T12:31:41.329Z,10.50
2019-03-18T12:34:10.635Z,10.40
2019-03-18T12:36:39.968Z,10.20
2019-03-18T12:39:09.179Z,9.80
2019-03-18T12:41:38.164Z,9.50
2019-03-18T12:44:07.305Z,9.10
2019-03-18T12:46:36.575Z,9.00
2019-03-18T12:49:07.140Z,9.00
2019-03-18T12:51:36.300Z,9.00
2019-03-18T12:54:05.368Z,9.10
2019-03-18T12:56:34.504Z,9.20
2019-03-18T12:59:03.756Z,9.30
2019-03-18T13:01:32.971Z,9.40
2019-03-18T13:04:02.080Z,9.40
2019-03-18T13:06:33.549Z,9.60
2019-03-18T13:09:01.927Z,9.80
2019-03-18T13:11:31.039Z,10.00
2019-03-18T13:14:00.404Z,10.30
2019-03-18T13:16:29.503Z,10.50
2019-03-18T13:18:58.378Z,10.60
2019-03-18T13:21:30.831Z,10.80
2019-03-18T13:23:59.848Z,10.90
2019-03-18T13:26:28.879Z,10.90
2019-03-18T13:28:58.344Z,11.00
2019-03-18T13:31:27.436Z,11.10
2019-03-18T13:33:56.444Z,11.00
2019-03-18T13:36:25.711Z,11.00
2019-03-18T13:38:54.791Z,10.90
2019-03-18T13:41:24.394Z,10.80
2019-03-18T13:43:56.605Z,10.70
2019-03-18T13:46:30.756Z,10.60
2019-03-18T13:48:59.787Z,10.40
2019-03-18T13:51:28.783Z,10.30
2019-03-18T13:53:57.921Z,10.30
2019-03-18T13:56:27.081Z,10.40
2019-03-18T13:58:56.198Z,10.50
2019-03-18T14:01:25.412Z,10.60
2019-03-18T14:03:54.403Z,10.60
2019-03-18T14:06:23.478Z,10.60
2019-03-18T14:08:52.564Z,10.60
2019-03-18T14:11:21.637Z,10.70
2019-03-18T14:13:50.655Z,10.80
2019-03-18T14:16:20.044Z,10.80
2019-03-18T14:18:49.338Z,10.90
2019-03-18T14:21:18.530Z,10.90
2019-03-18T14:23:47.654Z,10.80
2019-03-18T14:26:16.656Z,10.80
2019-03-18T14:28:45.646Z,10.80
2019-03-18T14:31:14.747Z,10.80
2019-03-18T14:33:43.752Z,10.80
2019-03-18T14:36:12.839Z,10.80
2019-03-18T14:38:41.912Z,10.80
2019-03-18T14:41:10.874Z,10.70
2019-03-18T14:43:46.495Z,10.70
2019-03-18T14:46:15.123Z,10.70
2019-03-18T14:48:44.258Z,10.60
2019-03-18T14:51:13.212Z,10.50
2019-03-18T14:53:42.203Z,10.30
2019-03-18T14:56:14.889Z,10.20
2019-03-18T14:58:43.846Z,10.10
2019-03-18T15:01:12.858Z,10.00
2019-03-18T15:03:41.917Z,10.00
2019-03-18T15:06:10.813Z,9.90
2019-03-18T15:08:40.187Z,9.90
2019-03-18T15:11:09.211Z,9.90
2019-03-18T15:13:38.106Z,9.80
2019-03-18T15:16:07.231Z,9.80
2019-03-18T15:18:36.516Z,9.70
2019-03-18T15:21:05.757Z,9.70
2019-03-18T15:23:34.926Z,9.60
2019-03-18T15:26:05.300Z,9.60
2019-03-18T15:28:34.599Z,9.50
2019-03-18T15:31:03.518Z,9.50
2019-03-18T15:33:32.694Z,9.50
2019-03-18T15:36:01.689Z,9.50
2019-03-18T15:38:30.856Z,9.50
2019-03-18T15:40:59.951Z,9.50
2019-03-18T15:43:29.356Z,9.50
2019-03-18T15:45:58.546Z,9.60
2019-03-18T15:48:27.799Z,9.60
2019-03-18T15:50:56.947Z,9.70
2019-03-18T15:53:26.275Z,9.70
2019-03-18T15:55:55.404Z,9.80
2019-03-18T15:58:24.551Z,9.80
2019-03-18T16:00:53.881Z,9.80
2019-03-18T16:03:22.955Z,9.80
2019-03-18T16:06:00.980Z,9.90
2019-03-18T16:08:30.158Z,10.00
2019-03-18T16:10:59.298Z,10.00
2019-03-18T16:13:28.395Z,10.10
2019-03-18T16:15:57.428Z,10.10
2019-03-18T16:18:26.479Z,10.00
2019-03-18T16:20:55.554Z,10.00
2019-03-18T16:23:24.495Z,9.90
2019-03-18T16:25:53.591Z,9.80
2019-03-18T16:28:22.663Z,9.80
2019-03-18T16:30:51.663Z,9.80
2019-03-18T16:33:20.666Z,9.70
2019-03-18T16:35:49.643Z,9.70
2019-03-18T16:38:18.774Z,9.60
2019-03-18T16:40:47.779Z,9.60
2019-03-18T16:43:17.135Z,9.50
2019-03-18T16:45:46.222Z,9.50
2019-03-18T16:48:15.245Z,9.50
2019-03-18T16:50:46.475Z,9.40
2019-03-18T16:53:15.924Z,9.40
2019-03-18T16:55:45.102Z,9.30
2019-03-18T16:58:14.293Z,9.30
2019-03-18T17:00:43.565Z,9.20
2019-03-18T17:03:13.022Z,9.20
2019-03-18T17:05:42.363Z,9.10
2019-03-18T17:08:11.343Z,8.90
2019-03-18T17:10:40.447Z,8.90
2019-03-18T17:13:09.569Z,8.80
2019-03-18T17:15:38.665Z,8.70
2019-03-18T17:18:07.775Z,8.70
2019-03-18T17:20:36.826Z,8.60
2019-03-18T17:23:05.950Z,8.60
2019-03-18T17:25:35.056Z,8.60
2019-03-18T17:28:04.246Z,8.50
2019-03-18T17:30:33.429Z,8.50
2019-03-18T17:33:02.587Z,8.40
2019-03-18T17:35:31.744Z,8.40
2019-03-18T17:38:00.871Z,8.50
2019-03-18T17:40:29.895Z,8.40
2019-03-18T17:42:58.931Z,8.40
2019-03-18T17:45:28.295Z,8.40
2019-03-18T17:47:57.770Z,8.30
2019-03-18T17:50:26.971Z,8.30
2019-03-18T17:53:02.926Z,8.20
2019-03-18T17:55:27.072Z,8.20
2019-03-18T17:57:56.559Z,8.10
2019-03-18T18:00:32.550Z,8.00
2019-03-18T18:03:01.475Z,8.00
2019-03-18T18:05:30.591Z,8.00
2019-03-18T18:07:59.636Z,7.90
2019-03-18T18:10:28.599Z,7.90
2019-03-18T18:12:57.648Z,7.90
2019-03-18T18:15:26.703Z,7.80
2019-03-18T18:17:56.046Z,7.80
2019-03-18T18:20:25.194Z,7.80
2019-03-18T18:22:54.257Z,7.80
2019-03-18T18:25:23.257Z,7.70
2019-03-18T18:27:52.343Z,7.70
2019-03-18T18:30:21.725Z,7.70
2019-03-18T18:33:08.007Z,7.60
2019-03-18T18:35:36.862Z,7.60
2019-03-18T18:38:15.396Z,7.60
2019-03-18T18:41:16.370Z,7.60
2019-03-18T18:43:46.970Z,7.50
2019-03-18T18:46:16.058Z,7.40
2019-03-18T18:51:47.291Z,7.40
2019-03-18T18:54:26.795Z,7.50
2019-03-18T18:57:33.450Z,7.50
2019-03-18T19:03:19.783Z,7.50
2019-03-18T19:06:00.112Z,7.50
2019-03-18T19:08:43.615Z,7.50
2019-03-18T19:11:29.182Z,7.50
2019-03-18T19:13:49.183Z,7.50
2019-03-18T19:16:32.616Z,7.50
2019-03-18T19:19:17.819Z,7.50
2019-03-18T19:24:49.526Z,7.50
2019-03-18T19:28:07.321Z,7.50
2019-03-18T19:30:47.836Z,7.40
2019-03-18T19:33:17.175Z,7.30
2019-03-18T19:35:46.598Z,7.30
2019-03-18T19:38:15.857Z,7.20
2019-03-18T19:40:44.879Z,7.10
2019-03-18T19:43:36.359Z,7.10
2019-03-18T19:46:30.773Z,7.10
2019-03-18T19:49:44.193Z,7.10
2019-03-18T19:52:46.252Z,7.10
2019-03-18T19:55:59.597Z,7.10
2019-03-18T19:58:45.210Z,7.10
2019-03-18T20:01:30.155Z,7.10
2019-03-18T20:10:55.405Z,7.10
2019-03-18T20:14:12.764Z,7.20
2019-03-18T20:17:28.387Z,7.20
2019-03-18T20:20:14.066Z,7.20
2019-03-18T20:22:47.641Z,7.10
2019-03-18T20:29:16.145Z,7.10
2019-03-18T20:35:18.904Z,7.00
2019-03-18T20:41:42.451Z,6.90
2019-03-18T20:44:17.443Z,6.90
2019-03-18T20:51:14.859Z,7.00
2019-03-18T20:54:33.500Z,6.90
2019-03-18T20:57:02.451Z,7.00
2019-03-18T20:59:43.063Z,6.90
2019-03-18T21:02:44.339Z,6.90
2019-03-18T21:05:43.034Z,6.80
2019-03-18T21:11:32.692Z,6.80
2019-03-18T21:14:01.995Z,6.80
2019-03-18T21:16:31.077Z,6.80
2019-03-18T21:19:00.104Z,6.70
2019-03-18T21:21:29.118Z,6.70
2019-03-18T21:23:58.443Z,6.80
2019-03-18T21:26:27.562Z,6.80
2019-03-18T21:28:56.627Z,6.80
2019-03-18T21:31:25.682Z,6.70
2019-03-18T21:33:54.708Z,6.60
2019-03-18T21:36:36.904Z,6.70
2019-03-18T21:38:54.490Z,6.70
2019-03-18T21:41:23.800Z,6.60
2019-03-18T21:43:52.691Z,6.50
2019-03-18T21:46:21.692Z,6.60
2019-03-18T21:48:50.688Z,6.60
2019-03-18T21:51:19.769Z,6.60
2019-03-18T21:53:48.844Z,6.60
2019-03-18T21:56:17.971Z,6.50
2019-03-18T21:58:46.928Z,6.50
2019-03-18T22:01:15.946Z,6.50
2019-03-18T22:03:44.958Z,6.40
2019-03-18T22:06:13.868Z,6.40
2019-03-18T22:08:42.890Z,6.50
2019-03-18T22:11:11.870Z,6.60
2019-03-18T22:13:40.834Z,6.60
2019-03-18T22:16:09.925Z,6.60
2019-03-18T22:18:38.972Z,6.50
2019-03-18T22:21:08.006Z,6.50
2019-03-18T22:23:37.040Z,6.50
2019-03-18T22:26:06.204Z,6.40
2019-03-18T22:28:35.577Z,6.40
2019-03-18T22:31:04.742Z,6.40
2019-03-18T22:33:33.806Z,6.40
2019-03-18T22:36:02.937Z,6.50
2019-03-18T22:38:32.272Z,6.50
2019-03-18T22:41:01.300Z,6.50
2019-03-18T22:43:30.328Z,6.50
2019-03-18T22:45:59.309Z,6.50
2019-03-18T22:48:28.316Z,6.50
2019-03-18T22:50:57.386Z,6.40
2019-03-18T22:53:26.679Z,6.50
2019-03-18T22:55:55.769Z,6.40
2019-03-18T22:58:24.783Z,6.40
2019-03-18T23:01:25.820Z,6.40
2019-03-18T23:03:54.997Z,6.40
2019-03-18T23:06:24.313Z,6.40
2019-03-18T23:08:53.411Z,6.30
2019-03-18T23:11:22.522Z,6.30
2019-03-18T23:13:51.720Z,6.30
2019-03-18T23:16:20.836Z,6.30
2019-03-18T23:18:49.950Z,6.20
2019-03-18T23:21:19.201Z,6.20
2019-03-18T23:23:48.277Z,6.20
2019-03-18T23:26:17.432Z,6.20
2019-03-18T23:28:46.559Z,6.20
2019-03-18T23:31:15.669Z,6.10
2019-03-18T23:33:45.024Z,6.10
2019-03-18T23:36:14.074Z,6.10
2019-03-18T23:38:43.065Z,6.10
2019-03-18T23:41:12.248Z,6.00
2019-03-18T23:43:41.220Z,6.00
2019-03-18T23:46:10.327Z,5.90
2019-03-18T23:48:39.466Z,5.90
2019-03-18T23:51:08.555Z,5.80
2019-03-18T23:53:37.874Z,5.80
2019-03-18T23:56:07.145Z,5.80
2019-03-18T23:58:36.158Z,5.80
